Time;durP1;ratioP1;P1;durP2;ratioP2;P2;SDS_P1;SDS_P2;PMS_P1;PMS_P2;Temp;Humidity;BMP_temperature;BMP_pressure;BME280_temperature;BME280_humidity;BME280_pressure;Samples;Min_cycle;Max_cycle;Signal;HPM_P1;HPM_P2
2023/12/03 00:01:54;;;;;;;13.65;3.50;;;;;;;13.38;76.23;92232.41;5047605;28;20084;-77
2023/12/03 00:04:21;;;;;;;16.00;5.20;;;;;;;13.33;76.37;92233.16;5049699;28;20437;-76
2023/12/03 00:06:48;;;;;;;14.82;3.90;;;;;;;13.33;76.85;92237.56;5055139;28;20045;-77
2023/12/03 00:09:16;;;;;;;14.50;4.75;;;;;;;13.30;77.07;92235.47;5064019;28;20056;-77
2023/12/03 00:11:43;;;;;;;10.40;2.92;;;;;;;13.30;76.81;92232.91;5059770;28;20052;-77
2023/12/03 00:14:11;;;;;;;11.50;3.83;;;;;;;13.34;77.25;92241.69;5047694;28;20422;-77
2023/12/03 00:16:38;;;;;;;7.85;2.80;;;;;;;13.30;77.23;92230.31;5059739;28;20044;-77
2023/12/03 00:19:05;;;;;;;14.95;2.55;;;;;;;13.37;77.06;92230.84;5048780;28;20124;-77
2023/12/03 00:21:32;;;;;;;13.27;3.00;;;;;;;13.32;77.53;92229.03;5047195;28;20059;-77
2023/12/03 00:23:59;;;;;;;12.07;2.75;;;;;;;13.31;77.65;92222.34;5056618;28;20052;-77
2023/12/03 00:26:26;;;;;;;14.63;3.08;;;;;;;13.37;77.71;92233.44;5055760;28;20056;-77
2023/12/03 00:28:53;;;;;;;16.27;3.05;;;;;;;13.34;77.44;92219.25;5056141;28;20524;-77
2023/12/03 00:31:21;;;;;;;11.93;3.22;;;;;;;13.28;77.74;92211.75;5063350;28;20044;-77
2023/12/03 00:33:48;;;;;;;10.07;2.50;;;;;;;13.34;77.40;92228.78;5059195;28;20415;-76
2023/12/03 00:36:15;;;;;;;10.88;3.42;;;;;;;13.36;77.27;92232.69;5052115;28;20474;-77
2023/12/03 00:38:42;;;;;;;12.48;3.45;;;;;;;13.35;77.51;92238.88;5055608;28;20056;-77
2023/12/03 00:41:09;;;;;;;18.58;4.25;;;;;;;13.31;77.52;92230.06;5052071;28;20083;-76
2023/12/03 00:43:36;;;;;;;14.00;3.55;;;;;;;13.29;77.51;92234.69;5053034;28;20250;-76
2023/12/03 00:46:03;;;;;;;19.33;2.80;;;;;;;13.44;77.67;92246.13;5050803;28;20056;-76
2023/12/03 00:48:31;;;;;;;15.60;3.10;;;;;;;13.51;77.53;92246.69;5051497;28;20506;-76
2023/12/03 00:50:58;;;;;;;11.38;2.67;;;;;;;13.27;77.14;92205.00;5054869;28;20075;-76
2023/12/03 00:53:25;;;;;;;8.00;1.92;;;;;;;13.56;77.50;92248.53;5050595;28;20044;-76
2023/12/03 00:55:52;;;;;;;8.93;2.80;;;;;;;13.58;77.37;92244.69;5061781;28;20074;-77
2023/12/03 00:58:28;;;;;;;9.52;2.50;;;;;;;13.61;77.26;92246.75;5055214;28;20048;-77
2023/12/03 01:00:55;;;;;;;;;;;;;;;13.64;77.07;92245.47;5059629;28;20052;-77
2023/12/03 01:03:24;;;;;;;12.20;2.47;;;;;;;13.53;77.20;92242.06;5061705;28;20305;-77
2023/12/03 01:05:52;;;;;;;7.57;3.05;;;;;;;13.59;77.17;92248.00;5054627;28;20110;-76
2023/12/03 01:08:19;;;;;;;10.95;2.63;;;;;;;13.63;76.93;92259.41;5051234;28;20052;-76
2023/12/03 01:10:46;;;;;;;10.55;2.63;;;;;;;13.65;77.03;92249.59;5050903;28;20058;-77
2023/12/03 01:13:13;;;;;;;10.77;2.60;;;;;;;13.59;76.90;92251.38;5050123;28;20053;-77
2023/12/03 01:15:40;;;;;;;16.30;2.35;;;;;;;13.63;76.80;92256.81;5050538;28;20049;-76
2023/12/03 01:18:09;;;;;;;13.77;2.38;;;;;;;13.66;76.49;92258.88;5051214;28;20059;-77
2023/12/03 01:20:36;;;;;;;10.75;2.90;;;;;;;13.68;76.48;92256.84;5051210;28;20053;-77
2023/12/03 01:23:05;;;;;;;13.88;2.30;;;;;;;13.59;76.81;92246.22;5051168;28;20456;-77
2023/12/03 01:25:32;;;;;;;11.50;3.15;;;;;;;13.56;76.62;92228.66;5051943;28;20053;-76
2023/12/03 01:27:59;;;;;;;11.43;2.83;;;;;;;13.73;76.63;92256.84;5055606;28;20055;-77
2023/12/03 01:30:26;;;;;;;15.43;3.05;;;;;;;13.74;76.22;92265.34;5055504;28;20053;-76
2023/12/03 01:32:53;;;;;;;9.90;2.42;;;;;;;13.72;76.42;92262.25;5055115;28;20425;-77
2023/12/03 01:35:19;;;;;;;12.57;2.47;;;;;;;13.72;76.73;92255.31;5060843;28;20044;-77
2023/12/03 01:37:46;;;;;;;14.85;2.95;;;;;;;13.66;76.95;92258.88;5053041;28;20049;-77
2023/12/03 01:40:15;;;;;;;12.13;2.78;;;;;;;13.67;76.84;92263.03;5050103;28;20053;-77
2023/12/03 01:42:42;;;;;;;12.02;3.30;;;;;;;13.73;77.08;92268.97;5050594;28;20052;-77
2023/12/03 01:45:09;;;;;;;8.95;2.30;;;;;;;13.66;76.74;92268.44;5050264;28;20052;-77
2023/12/03 01:47:36;;;;;;;10.15;2.25;;;;;;;13.73;76.88;92266.41;5054782;28;20520;-76
2023/12/03 01:50:07;;;;;;;10.25;2.67;;;;;;;13.78;76.65;92269.00;5052454;28;20076;-77
2023/12/03 01:52:34;;;;;;;10.15;2.55;;;;;;;13.76;76.82;92269.25;5054316;28;20060;-77
2023/12/03 01:55:03;;;;;;;13.45;2.50;;;;;;;13.76;76.62;92268.47;5049696;28;20049;-77
2023/12/03 01:57:31;;;;;;;13.68;2.47;;;;;;;13.67;77.09;92268.19;5049618;28;20057;-77
2023/12/03 01:59:59;;;;;;;12.77;2.97;;;;;;;13.74;76.90;92273.88;5058843;28;20098;-77
2023/12/03 02:02:26;;;;;;;14.70;2.97;;;;;;;13.68;77.21;92274.91;5055289;28;20053;-76
2023/12/03 02:07:42;;;;;;;9.02;2.00;;;;;;;13.72;77.51;92264.84;5055880;28;20049;-76
2023/12/03 02:10:10;;;;;;;11.38;2.47;;;;;;;13.72;77.19;92264.84;5059064;28;20167;-76
2023/12/03 02:12:38;;;;;;;15.80;4.15;;;;;;;13.66;77.46;92258.88;5050376;28;20045;-76
2023/12/03 02:15:06;;;;;;;17.50;3.45;;;;;;;13.51;77.32;92243.34;5052872;28;20044;-76
2023/12/03 02:17:33;;;;;;;12.25;2.88;;;;;;;13.52;77.50;92255.97;5049726;28;20057;-76
2023/12/03 02:20:00;;;;;;;13.57;2.40;;;;;;;13.68;77.82;92272.31;5050867;28;20049;-76
2023/12/03 02:22:27;;;;;;;10.43;2.70;;;;;;;13.69;77.81;92281.59;5057738;28;20088;-76
2023/12/03 02:24:55;;;;;;;19.42;3.42;;;;;;;13.74;77.80;92286.78;5049466;28;20597;-76
2023/12/03 02:27:22;;;;;;;10.93;2.40;;;;;;;13.75;77.85;92282.41;5049277;28;20071;-76
2023/12/03 02:29:49;;;;;;;9.95;2.78;;;;;;;13.73;77.41;92290.41;5050608;28;20083;-77
2023/12/03 02:32:16;;;;;;;13.25;2.47;;;;;;;13.75;77.66;92288.34;5055173;28;21936;-76
2023/12/03 02:34:43;;;;;;;14.38;2.55;;;;;;;13.73;77.91;92294.78;5054120;28;20055;-76
2023/12/03 02:37:10;;;;;;;11.00;2.78;;;;;;;13.76;77.86;92300.22;5050835;28;20053;-76
2023/12/03 02:39:37;;;;;;;11.68;2.75;;;;;;;13.75;77.96;92300.50;5049347;28;20395;-76
2023/12/03 02:42:05;;;;;;;11.75;3.15;;;;;;;13.72;78.14;92298.41;5050679;28;20055;-76
2023/12/03 02:44:32;;;;;;;11.02;3.00;;;;;;;13.68;78.03;92295.53;5052681;28;20509;-78
2023/12/03 02:46:59;;;;;;;15.77;3.55;;;;;;;13.64;78.00;92291.91;5053890;28;20083;-78
2023/12/03 02:49:26;;;;;;;15.60;3.22;;;;;;;13.69;78.24;92297.09;5055182;28;20824;-76
2023/12/03 02:51:53;;;;;;;14.85;3.50;;;;;;;13.65;78.28;92296.03;5064259;28;20063;-78
2023/12/03 02:54:20;;;;;;;12.75;3.35;;;;;;;13.66;78.69;92299.41;5052025;28;20047;-78
2023/12/03 02:56:47;;;;;;;13.35;3.60;;;;;;;13.65;78.91;92303.78;5051840;28;20052;-76
2023/12/03 02:59:15;;;;;;;15.88;4.07;;;;;;;13.63;78.75;92285.19;5053433;28;20067;-76
2023/12/03 03:01:42;;;;;;;12.23;2.80;;;;;;;13.55;78.80;92290.81;5057276;28;20053;-77
2023/12/03 03:04:09;;;;;;;11.55;2.83;;;;;;;13.44;79.19;92283.03;5057528;28;20048;-76
2023/12/03 03:06:36;;;;;;;12.27;2.70;;;;;;;13.47;79.40;92294.69;5050545;28;20059;-76
2023/12/03 03:09:03;;;;;;;14.23;3.20;;;;;;;13.49;79.47;92295.97;5049561;28;20056;-76
2023/12/03 03:11:30;;;;;;;14.10;3.50;;;;;;;13.47;79.91;92289.50;5053715;28;20045;-76
2023/12/03 03:13:57;;;;;;;10.02;3.28;;;;;;;13.45;80.52;92291.53;5049169;28;20140;-76
2023/12/03 03:16:26;;;;;;;16.50;2.90;;;;;;;13.37;81.08;92285.03;5058967;28;20537;-76
2023/12/03 03:18:54;;;;;;;18.50;3.83;;;;;;;13.32;81.24;92293.53;5062231;28;20056;-76
2023/12/03 03:21:21;;;;;;;19.20;3.40;;;;;;;13.24;81.89;92278.50;5050884;28;20062;-77
2023/12/03 03:23:48;;;;;;;15.05;4.20;;;;;;;13.31;81.95;92299.72;5047935;28;20044;-77
2023/12/03 03:26:15;;;;;;;15.93;3.47;;;;;;;13.33;81.88;92292.50;5049693;28;20048;-77
2023/12/03 03:28:42;;;;;;;9.48;3.05;;;;;;;13.33;81.93;92291.72;5058167;28;20048;-77
2023/12/03 03:31:10;;;;;;;11.20;3.42;;;;;;;13.30;82.10;92294.78;5052882;28;20413;-76
2023/12/03 03:33:38;;;;;;;12.27;3.15;;;;;;;13.31;82.23;92294.56;5047471;28;20526;-76
2023/12/03 03:36:06;;;;;;;15.57;3.17;;;;;;;13.32;81.99;92297.88;5049718;28;20132;-76
2023/12/03 03:38:33;;;;;;;12.90;2.78;;;;;;;13.38;81.55;92314.94;5048351;28;20053;-76
2023/12/03 03:40:59;;;;;;;10.98;3.63;;;;;;;13.35;81.56;92308.50;5065263;28;20136;-75
2023/12/03 03:43:26;;;;;;;12.32;3.20;;;;;;;13.33;81.51;92297.66;5056223;28;21149;-76
2023/12/03 03:45:53;;;;;;;11.05;2.38;;;;;;;13.22;81.38;92301.97;5051223;28;20058;-76
2023/12/03 03:48:20;;;;;;;12.43;2.58;;;;;;;13.36;81.33;92322.16;5047694;28;20049;-76
2023/12/03 03:50:48;;;;;;;18.08;3.83;;;;;;;13.31;81.51;92324.72;5051064;28;20055;-76
2023/12/03 03:53:15;;;;;;;15.77;2.40;;;;;;;13.31;81.47;92333.22;5050436;28;20581;-76
2023/12/03 03:55:42;;;;;;;12.18;2.67;;;;;;;13.31;81.25;92320.34;5046983;28;20063;-76
2023/12/03 03:58:09;;;;;;;20.40;3.13;;;;;;;13.33;81.30;92318.28;5046583;28;20425;-76
2023/12/03 04:00:36;;;;;;;12.82;3.05;;;;;;;13.33;81.40;92320.84;5049084;28;20049;-76
2023/12/03 04:03:03;;;;;;;13.35;3.13;;;;;;;13.35;81.46;92318.81;5054004;28;20140;-76
2023/12/03 04:05:30;;;;;;;10.63;2.97;;;;;;;13.41;81.29;92321.41;5048072;28;20052;-76
2023/12/03 04:07:59;;;;;;;18.90;3.05;;;;;;;13.46;81.37;92331.75;5054771;28;20048;-76
2023/12/03 04:10:25;;;;;;;15.82;3.67;;;;;;;13.46;81.30;92339.50;5047108;28;20040;-76
2023/12/03 04:12:52;;;;;;;18.20;4.32;;;;;;;13.43;81.67;92335.63;5047109;28;20139;-76
2023/12/03 04:15:19;;;;;;;16.17;4.05;;;;;;;13.43;81.48;92343.34;5051608;28;20048;-76
2023/12/03 04:17:46;;;;;;;21.80;3.20;;;;;;;13.48;81.11;92350.41;5051825;28;20045;-76
2023/12/03 04:20:13;;;;;;;14.93;3.17;;;;;;;13.43;80.53;92350.34;5047182;28;20071;-76
2023/12/03 04:22:40;;;;;;;16.27;4.07;;;;;;;13.16;81.12;92359.69;5046900;28;20057;-76
2023/12/03 04:25:09;;;;;;;18.25;6.28;;;;;;;13.13;81.25;92365.34;5051894;28;20049;-76
2023/12/03 04:27:37;;;;;;;13.80;3.45;;;;;;;12.96;81.50;92379.13;5056195;28;20395;-75
2023/12/03 04:30:04;;;;;;;12.98;3.33;;;;;;;12.62;82.45;92365.66;5051093;28;20418;-75
2023/12/03 04:32:31;;;;;;;9.90;3.00;;;;;;;12.59;82.70;92376.47;5053786;28;20053;-75
2023/12/03 04:34:58;;;;;;;12.20;3.22;;;;;;;12.65;82.92;92386.56;5051346;28;20045;-75
2023/12/03 04:37:25;;;;;;;14.13;4.15;;;;;;;12.68;82.24;92387.88;5046829;28;20055;-75
2023/12/03 04:39:52;;;;;;;15.40;4.10;;;;;;;12.83;82.55;92402.72;5047090;28;20045;-75
2023/12/03 04:42:20;;;;;;;10.63;3.75;;;;;;;12.89;82.23;92408.69;5052537;28;20052;-75
2023/12/03 04:44:50;;;;;;;12.52;4.05;;;;;;;12.73;81.87;92382.75;5047324;28;20083;-75
2023/12/03 04:47:17;;;;;;;9.30;3.38;;;;;;;12.98;81.50;92411.59;5050618;28;20509;-75
2023/12/03 04:49:44;;;;;;;14.23;4.50;;;;;;;12.99;81.94;92408.00;5048178;28;20706;-77
2023/12/03 04:52:11;;;;;;;14.80;3.53;;;;;;;13.09;83.16;92423.56;5063138;28;20052;-77
2023/12/03 04:54:38;;;;;;;12.60;3.30;;;;;;;13.15;83.60;92424.41;5046929;28;20048;-77
2023/12/03 04:57:05;;;;;;;21.30;4.55;;;;;;;13.14;83.65;92428.78;5047038;28;20056;-76
2023/12/03 04:59:34;;;;;;;15.32;4.97;;;;;;;12.99;82.59;92437.16;5047555;28;20053;-77
2023/12/03 05:02:00;;;;;;;17.42;5.72;;;;;;;13.03;83.89;92438.22;5054126;28;20048;-76
2023/12/03 05:04:27;;;;;;;17.90;6.13;;;;;;;13.00;85.19;92443.09;5046907;28;20048;-76
2023/12/03 05:06:54;;;;;;;15.55;5.30;;;;;;;12.91;86.40;92445.31;5057815;28;20418;-76
2023/12/03 05:09:21;;;;;;;11.50;4.13;;;;;;;12.80;88.87;92452.16;5049744;28;20748;-76
2023/12/03 05:11:48;;;;;;;14.07;4.13;;;;;;;12.70;90.12;92453.59;5050433;28;20048;-77
2023/12/03 05:14:15;;;;;;;12.68;3.08;;;;;;;12.69;91.40;92438.41;5051043;28;20124;-76
2023/12/03 05:16:43;;;;;;;12.55;3.65;;;;;;;12.71;92.09;92433.78;5052377;28;20051;-76
2023/12/03 05:19:10;;;;;;;15.30;4.10;;;;;;;12.71;93.81;92423.47;5056007;28;20048;-76
2023/12/03 05:21:37;;;;;;;15.95;4.25;;;;;;;12.57;97.28;92420.50;5050330;28;20053;-76
2023/12/03 05:24:04;;;;;;;13.15;3.92;;;;;;;12.49;98.35;92426.06;5054805;28;20516;-77
2023/12/03 05:26:31;;;;;;;23.70;7.85;;;;;;;12.46;98.07;92434.28;5053364;28;20131;-77
2023/12/03 05:29:01;;;;;;;18.00;7.45;;;;;;;12.49;96.21;92451.84;5058374;28;20076;-75
2023/12/03 05:31:29;;;;;;;19.00;7.57;;;;;;;12.45;96.71;92446.34;5057589;28;20056;-75
2023/12/03 05:33:57;;;;;;;21.48;7.57;;;;;;;12.48;97.21;92437.38;5056220;28;20042;-77
2023/12/03 05:36:24;;;;;;;17.60;7.75;;;;;;;12.40;97.33;92436.00;5059600;28;20146;-76
2023/12/03 05:38:52;;;;;;;19.65;6.65;;;;;;;12.48;97.18;92445.91;5060384;28;20045;-76
2023/12/03 05:41:19;;;;;;;14.00;5.13;;;;;;;12.40;96.60;92439.34;5059081;28;20115;-75
2023/12/03 05:43:46;;;;;;;16.35;5.65;;;;;;;12.33;96.52;92431.03;5059474;28;20051;-75
2023/12/03 05:46:13;;;;;;;18.10;6.50;;;;;;;12.45;95.43;92458.47;5059820;28;20070;-78
2023/12/03 05:48:40;;;;;;;19.45;7.03;;;;;;;12.46;97.85;92454.88;5057073;28;20510;-77
2023/12/03 05:51:12;;;;;;;18.92;7.00;;;;;;;12.46;96.65;92457.44;5049301;28;20419;-77
2023/12/03 05:53:39;;;;;;;19.13;7.55;;;;;;;12.44;94.93;92457.69;5049840;28;20060;-77
2023/12/03 05:56:07;;;;;;;17.30;6.75;;;;;;;12.43;96.37;92462.06;5049803;28;20056;-77
2023/12/03 05:58:34;;;;;;;22.63;7.57;;;;;;;12.37;97.80;92470.72;5049284;28;20502;-77
2023/12/03 06:01:01;;;;;;;19.05;6.32;;;;;;;12.35;98.13;92479.75;5062794;28;20088;-77
2023/12/03 06:03:28;;;;;;;19.33;7.50;;;;;;;12.31;98.58;92479.41;5065986;28;20131;-77
2023/12/03 06:05:55;;;;;;;16.63;6.13;;;;;;;12.28;98.84;92480.66;5053207;28;20055;-77
2023/12/03 06:08:24;;;;;;;16.13;5.32;;;;;;;12.21;99.76;92476.72;5050104;28;20055;-77
2023/12/03 06:10:50;;;;;;;18.05;5.90;;;;;;;12.17;100.00;92494.41;5051486;28;20037;-77
2023/12/03 06:13:17;;;;;;;17.30;5.78;;;;;;;12.11;100.00;92485.88;5049411;28;20045;-77
2023/12/03 06:15:44;;;;;;;12.00;4.65;;;;;;;12.09;100.00;92485.31;5050041;28;20045;-77
2023/12/03 06:18:11;;;;;;;16.58;5.57;;;;;;;11.70;100.00;92441.50;5045116;28;20049;-77
2023/12/03 06:20:38;;;;;;;22.98;8.70;;;;;;;12.05;100.00;92493.75;5049668;28;20418;-77
2023/12/03 06:23:05;;;;;;;13.52;7.38;;;;;;;12.02;100.00;92503.47;5049678;28;20533;-77
2023/12/03 06:25:33;;;;;;;14.27;5.45;;;;;;;12.06;100.00;92513.31;5049681;28;20059;-77
2023/12/03 06:28:00;;;;;;;14.20;6.03;;;;;;;12.05;100.00;92522.06;5049643;28;20056;-77
2023/12/03 06:30:27;;;;;;;13.48;6.28;;;;;;;11.94;100.00;92510.81;5049453;28;20134;-77
2023/12/03 06:32:55;;;;;;;22.48;7.57;;;;;;;12.02;100.00;92526.66;5057146;28;20056;-77
2023/12/03 06:35:22;;;;;;;12.93;6.30;;;;;;;11.98;100.00;92519.59;5049743;28;20056;-77
2023/12/03 06:37:48;;;;;;;22.95;8.63;;;;;;;12.03;100.00;92535.13;5049160;28;20041;-77
2023/12/03 06:40:16;;;;;;;32.92;11.07;;;;;;;11.96;100.00;92534.50;5048730;28;20057;-78
2023/12/03 06:42:44;;;;;;;23.08;9.23;;;;;;;11.93;100.00;92537.56;5056413;28;20118;-76
2023/12/03 06:45:12;;;;;;;20.48;10.05;;;;;;;11.98;100.00;92547.91;5049169;28;20468;-77
2023/12/03 06:47:39;;;;;;;20.38;10.60;;;;;;;11.92;100.00;92552.22;5055429;28;20045;-77
2023/12/03 06:50:07;;;;;;;22.10;10.48;;;;;;;11.91;100.00;92558.38;5049974;28;20048;-76
2023/12/03 06:52:34;;;;;;;24.80;11.85;;;;;;;11.86;100.00;92553.16;5049319;28;20414;-76
2023/12/03 06:55:01;;;;;;;25.27;11.85;;;;;;;11.85;100.00;92556.75;5049169;28;20368;-76
2023/12/03 06:57:28;;;;;;;23.52;11.18;;;;;;;11.82;100.00;92554.63;5051660;28;20049;-76
2023/12/03 06:59:56;;;;;;;20.45;8.32;;;;;;;11.76;100.00;92543.50;5048575;28;20139;-77
2023/12/03 07:02:23;;;;;;;20.85;8.32;;;;;;;11.85;100.00;92569.63;5054878;28;20055;-76
2023/12/03 07:04:50;;;;;;;18.55;7.53;;;;;;;11.80;100.00;92574.69;5048965;28;20103;-77
2023/12/03 07:07:17;;;;;;;13.15;5.80;;;;;;;11.77;100.00;92573.34;5049087;28;20051;-77
2023/12/03 07:09:44;;;;;;;17.08;9.50;;;;;;;11.80;100.00;92569.53;5048531;28;20049;-77
2023/12/03 07:12:11;;;;;;;23.75;10.55;;;;;;;11.80;100.00;92575.44;5049247;28;20098;-77
2023/12/03 07:14:38;;;;;;;23.30;11.82;;;;;;;11.76;100.00;92584.66;5048102;28;20057;-77
2023/12/03 07:17:06;;;;;;;20.67;9.48;;;;;;;11.70;100.00;92570.91;5050885;28;20049;-76
2023/12/03 07:19:33;;;;;;;19.65;8.70;;;;;;;11.75;100.00;92580.50;5048722;28;20087;-76
2023/12/03 07:22:00;;;;;;;19.92;8.13;;;;;;;11.72;100.00;92592.03;5057943;28;20057;-77
2023/12/03 07:24:27;;;;;;;19.00;7.05;;;;;;;11.70;100.00;92588.94;5049599;28;20517;-77
2023/12/03 07:26:54;;;;;;;16.38;5.60;;;;;;;11.70;100.00;92590.72;5065037;28;20045;-77
2023/12/03 07:29:21;;;;;;;13.52;5.82;;;;;;;11.73;100.00;92603.91;5058217;28;20049;-77
2023/12/03 07:31:48;;;;;;;17.17;6.43;;;;;;;11.68;100.00;92587.59;5048225;28;20139;-77
2023/12/03 07:34:16;;;;;;;14.52;5.90;;;;;;;11.74;100.00;92604.69;5050245;28;20049;-77
2023/12/03 07:36:43;;;;;;;12.93;5.57;;;;;;;11.74;100.00;92605.47;5050185;28;20048;-77
2023/12/03 07:39:10;;;;;;;14.95;6.05;;;;;;;11.79;100.00;92609.91;5048044;28;20062;-77
2023/12/03 07:41:38;;;;;;;20.60;7.15;;;;;;;11.81;100.00;92631.03;5048332;28;20059;-77
2023/12/03 07:44:05;;;;;;;28.65;13.32;;;;;;;11.78;100.00;92631.50;5049948;28;20049;-77
2023/12/03 07:46:32;;;;;;;24.95;10.73;;;;;;;11.81;100.00;92632.84;5052618;28;20055;-77
2023/12/03 07:48:59;;;;;;;27.27;11.20;;;;;;;11.83;100.00;92634.19;5047767;28;20053;-77
2023/12/03 07:51:29;;;;;;;32.78;17.23;;;;;;;11.85;100.00;92634.72;5047658;28;20591;-77
2023/12/03 07:53:56;;;;;;;26.95;16.80;;;;;;;11.88;100.00;92651.50;5048139;28;20793;-77
2023/12/03 07:56:23;;;;;;;49.35;30.63;;;;;;;11.84;100.00;92642.66;5050213;28;20041;-77
2023/12/03 07:58:50;;;;;;;43.67;28.13;;;;;;;11.82;100.00;92635.19;5057166;28;20050;-76
2023/12/03 08:01:16;;;;;;;54.25;33.30;;;;;;;11.75;100.00;92643.03;5062003;28;20059;-78
2023/12/03 08:03:43;;;;;;;30.67;18.08;;;;;;;11.79;100.00;92663.19;5058109;28;20058;-77
2023/12/03 08:06:12;;;;;;;60.20;37.60;;;;;;;11.50;100.00;92631.28;5051087;28;20400;-77
2023/12/03 08:08:40;;;;;;;47.20;30.48;;;;;;;11.82;100.00;92668.66;5047595;28;20546;-77
2023/12/03 08:11:07;;;;;;;35.15;21.70;;;;;;;11.30;100.00;92641.19;5047941;28;20063;-77
2023/12/03 08:13:34;;;;;;;26.52;16.75;;;;;;;11.11;100.00;92653.41;5048732;28;20419;-77
2023/12/03 08:16:04;;;;;;;30.27;17.52;;;;;;;11.10;100.00;92662.91;5047698;28;20053;-77
2023/12/03 08:18:31;;;;;;;28.67;18.67;;;;;;;11.01;100.00;92669.41;5051898;28;20056;-77
2023/12/03 08:20:58;;;;;;;30.42;19.77;;;;;;;10.67;100.00;92678.47;5056065;28;20052;-78
2023/12/03 08:23:26;;;;;;;28.13;18.95;;;;;;;10.61;100.00;92676.00;5053296;28;20049;-77
2023/12/03 08:25:55;;;;;;;28.38;17.48;;;;;;;10.79;100.00;92678.47;5052363;28;20045;-77
2023/12/03 08:28:22;;;;;;;22.63;15.93;;;;;;;10.96;100.00;92685.50;5050422;28;20048;-77
2023/12/03 08:30:49;;;;;;;21.05;13.57;;;;;;;10.73;100.00;92647.78;5055523;28;20045;-77
2023/12/03 08:33:17;;;;;;;21.42;11.65;;;;;;;10.89;100.00;92679.69;5048552;28;20045;-77
2023/12/03 08:35:44;;;;;;;24.13;11.38;;;;;;;10.99;100.00;92674.78;5048410;28;20194;-77
2023/12/03 08:38:12;;;;;;;22.95;12.75;;;;;;;11.00;100.00;92665.25;5051058;28;20048;-77
2023/12/03 08:40:40;;;;;;;19.55;12.23;;;;;;;11.07;100.00;92677.00;5050434;28;20053;-77
2023/12/03 08:43:09;;;;;;;15.43;7.28;;;;;;;10.79;100.00;92662.28;5057361;28;20056;-77
2023/12/03 08:45:37;;;;;;;11.73;7.55;;;;;;;10.96;100.00;92662.38;5050887;28;20052;-77
2023/12/03 08:48:05;;;;;;;13.50;8.45;;;;;;;10.92;100.00;92674.88;5052777;28;20122;-77
2023/12/03 08:50:35;;;;;;;9.85;6.00;;;;;;;10.68;100.00;92676.66;5051922;28;20063;-77
2023/12/03 08:53:03;;;;;;;13.65;8.65;;;;;;;10.69;100.00;92680.81;5051275;28;20053;-77
2023/12/03 08:55:32;;;;;;;12.85;8.45;;;;;;;10.61;100.00;92673.44;5052974;28;20084;-77
2023/12/03 08:58:01;;;;;;;12.18;6.85;;;;;;;10.33;100.00;92670.50;5054638;28;20110;-77
2023/12/03 09:00:30;;;;;;;11.48;7.93;;;;;;;10.36;100.00;92679.50;5052501;28;20052;-77
2023/12/03 09:02:58;;;;;;;18.08;8.82;;;;;;;10.26;100.00;92655.19;5051932;28;20099;-77
2023/12/03 09:05:26;;;;;;;13.10;8.30;;;;;;;10.29;100.00;92662.44;5053763;28;20049;-77
2023/12/03 09:07:54;;;;;;;14.45;7.28;;;;;;;9.80;100.00;92675.38;5053607;28;20429;-77
2023/12/03 09:10:22;;;;;;;15.35;8.82;;;;;;;10.01;100.00;92689.47;5059583;28;20045;-77
2023/12/03 09:12:49;;;;;;;15.20;9.05;;;;;;;9.88;100.00;92687.91;5052986;28;20103;-77
2023/12/03 09:15:17;;;;;;;13.90;8.25;;;;;;;9.75;100.00;92688.06;5058803;28;20052;-77
2023/12/03 09:17:46;;;;;;;12.90;7.45;;;;;;;9.91;100.00;92686.69;5054122;28;20506;-77
2023/12/03 09:20:14;;;;;;;15.95;9.13;;;;;;;10.02;100.00;92710.81;5054892;28;20171;-77
2023/12/03 09:22:42;;;;;;;10.63;7.13;;;;;;;9.70;100.00;92705.88;5055186;28;20057;-77
2023/12/03 09:25:09;;;;;;;15.80;7.10;;;;;;;9.02;100.00;92706.59;5052070;28;20080;-77
2023/12/03 09:27:37;;;;;;;13.45;7.60;;;;;;;8.98;100.00;92705.47;5052404;28;20131;-77
2023/12/03 09:30:06;;;;;;;13.77;8.10;;;;;;;9.30;100.00;92717.38;5056489;28;20121;-78
2023/12/03 09:32:34;;;;;;;21.90;12.68;;;;;;;9.23;100.00;92702.84;5050513;28;20045;-77
2023/12/03 09:35:03;;;;;;;17.10;9.20;;;;;;;9.25;100.00;92714.69;5055915;28;20576;-78
2023/12/03 09:37:31;;;;;;;13.60;8.85;;;;;;;9.15;100.00;92715.16;5058164;28;20545;-77
2023/12/03 09:39:58;;;;;;;10.85;7.85;;;;;;;9.09;100.00;92722.69;5054541;28;20567;-77
2023/12/03 09:42:28;;;;;;;11.05;7.45;;;;;;;8.79;100.00;92727.69;5057354;28;20092;-77
2023/12/03 09:45:01;;;;;;;12.85;8.43;;;;;;;8.88;100.00;92735.91;5058380;28;20063;-77
2023/12/03 09:47:34;;;;;;;15.82;9.55;;;;;;;8.75;100.00;92727.34;5051848;28;20873;-77
2023/12/03 09:50:05;;;;;;;17.33;8.57;;;;;;;8.55;100.00;92735.97;5053626;28;20496;-77
2023/12/03 09:52:36;;;;;;;11.48;6.93;;;;;;;8.10;100.00;92724.03;5053468;28;20066;-77
2023/12/03 09:55:05;;;;;;;16.90;9.70;;;;;;;8.39;100.00;92744.13;5056268;28;20576;-77
2023/12/03 09:57:35;;;;;;;11.90;8.13;;;;;;;8.22;100.00;92742.06;5052323;28;20048;-77
2023/12/03 10:00:05;;;;;;;9.82;7.68;;;;;;;8.00;100.00;92773.06;5052726;28;20099;-77
2023/12/03 10:02:35;;;;;;;14.85;9.52;;;;;;;8.23;100.00;92779.44;5053608;28;20084;-78
2023/12/03 10:05:04;;;;;;;10.18;8.00;;;;;;;8.14;100.00;92783.22;5051045;28;20049;-77
2023/12/03 10:07:33;;;;;;;11.52;7.80;;;;;;;8.11;100.00;92784.44;5055494;28;20053;-78
2023/12/03 10:10:01;;;;;;;8.63;6.88;;;;;;;7.19;100.00;92782.78;5059694;28;20045;-77
2023/12/03 10:12:33;;;;;;;9.52;7.00;;;;;;;7.09;100.00;92776.28;5059499;28;20045;-77
2023/12/03 10:15:01;;;;;;;11.30;8.20;;;;;;;6.99;100.00;92775.13;5053006;28;20048;-78
2023/12/03 10:17:29;;;;;;;9.18;6.78;;;;;;;6.08;100.00;92776.25;5052522;28;20048;-77
2023/12/03 10:20:28;;;;;;;13.30;9.93;;;;;;;5.80;100.00;92755.94;5053623;28;20092;-77
2023/12/03 10:22:58;;;;;;;9.32;7.38;;;;;;;5.92;100.00;92763.81;5052907;28;20053;-77
2023/12/03 10:25:30;;;;;;;10.13;7.47;;;;;;;6.34;100.00;92794.34;5053164;28;20048;-77
2023/12/03 10:28:02;;;;;;;8.93;6.50;;;;;;;6.17;100.00;92796.47;5054111;28;20049;-77
2023/12/03 10:30:30;;;;;;;10.10;7.80;;;;;;;5.84;100.00;92792.81;5050060;28;20082;-77
2023/12/03 10:32:57;;;;;;;13.32;8.85;;;;;;;5.92;100.00;92781.66;5056083;28;20137;-77
2023/12/03 10:35:25;;;;;;;10.52;8.68;;;;;;;5.95;100.00;92801.66;5049941;28;20049;-77
2023/12/03 10:37:54;;;;;;;12.27;9.18;;;;;;;5.86;100.00;92806.13;5051397;28;20049;-77
2023/12/03 10:40:22;;;;;;;9.25;7.07;;;;;;;5.87;100.00;92817.91;5051349;28;20140;-77
2023/12/03 10:42:50;;;;;;;13.48;10.95;;;;;;;5.53;100.00;92812.66;5051106;28;20118;-76
2023/12/03 10:45:18;;;;;;;8.18;6.93;;;;;;;5.41;100.00;92820.03;5051156;28;20131;-77
2023/12/03 10:47:45;;;;;;;11.00;7.75;;;;;;;5.52;100.00;92815.41;5050083;28;20111;-77
2023/12/03 10:50:14;;;;;;;13.38;10.73;;;;;;;5.55;100.00;92825.22;5053507;28;20048;-77
2023/12/03 10:52:42;;;;;;;13.45;9.23;;;;;;;5.89;100.00;92824.38;5051107;28;20485;-77
2023/12/03 10:55:12;;;;;;;12.23;8.70;;;;;;;5.79;100.00;92823.16;5054730;28;20048;-77
2023/12/03 10:57:49;;;;;;;11.43;8.63;;;;;;;5.88;100.00;92814.41;5048591;28;20825;-77
2023/12/03 11:00:20;;;;;;;9.88;8.05;;;;;;;5.85;100.00;92819.84;5048896;28;20053;-77
2023/12/03 11:02:57;;;;;;;11.15;8.10;;;;;;;5.77;100.00;92827.66;5051021;28;20140;-77
2023/12/03 11:05:30;;;;;;;14.77;10.15;;;;;;;5.47;100.00;92816.75;5048643;28;20147;-77
2023/12/03 11:08:01;;;;;;;14.10;10.35;;;;;;;5.35;100.00;92826.69;5048627;28;20490;-77
2023/12/03 11:10:30;;;;;;;13.02;9.90;;;;;;;5.11;100.00;92827.09;5049071;28;20167;-76
2023/12/03 11:13:00;;;;;;;15.02;10.40;;;;;;;4.98;100.00;92854.03;5055733;28;20113;-76
2023/12/03 11:15:28;;;;;;;13.98;10.13;;;;;;;5.11;100.00;92855.09;5050271;28;20052;-76
2023/12/03 11:17:57;;;;;;;13.90;10.75;;;;;;;5.13;100.00;92845.53;5052905;28;20167;-77
2023/12/03 11:20:33;;;;;;;17.48;11.27;;;;;;;5.01;100.00;92847.78;5048247;28;20080;-76
2023/12/03 11:23:23;;;;;;;14.98;10.82;;;;;;;5.09;100.00;92868.00;5049529;28;20055;-76
2023/12/03 11:25:59;;;;;;;14.35;8.90;;;;;;;5.02;100.00;92869.72;5049775;28;20187;-76
2023/12/03 11:28:26;;;;;;;17.55;12.00;;;;;;;4.54;100.00;92840.56;5049330;28;20949;-76